• Join FlightAware (Why Join?)
  • Login
  • US Flag 
09:38AM EST


 

Airport Tracker/Info


-or-


 

Live Flight TrackerFlight Track Log ✈ RPA3228 ✈ 18-Apr-2013 ✈ KDCA - KBTV

Flight Track Log - Related Links

Times and Time Zones

All times are in EDT time to prevent confusion due to time zone crossing. See the RPA3228 flight status page for this flight to view local times or setup timezone preferences in your user account.

Time Position Orientation Groundspeed Altitude Reporting Facility
EDT Latitude Longitude Course Direction KTS MPH feet Rate Location/Type
11:26AM 38.8833 -77.0667 83° East 156 180 1,600  Level Potomac TRACON
11:28AM 38.9697 -77.1642 319° Northwest 229 264 6,300 2,940 Climbing Washington Center
11:29AM 39.0204 -76.5556 67° East  Level FlightAware Approximate
11:29AM 39.0342 -77.1922 341° North 246 283 10,000  Level Washington Center
11:30AM 39.0662 -76.4346 63° Northeast  Level FlightAware Approximate
11:30AM 39.0603 -77.1019 70° East 178 205 12,700  Level Washington Center
11:31AM 39.1167 -76.3166 90° East  Level FlightAware Approximate
11:31AM 39.0719 -76.9844 83° East 236 272 14,600  Level Washington Center
11:32AM 39.1518 -76.1988 83° East  Level FlightAware Approximate
11:32AM 39.0858 -76.8619 82° East 307 353 17,100  Level Washington Center
11:33AM 39.0997 -76.7311 82° East 333 383 19,200 2,100 Climbing Washington Center
11:34AM 39.1114 -76.5975 84° East 356 410 21,300 1,860 Climbing Washington Center
11:35AM 39.1019 -76.4556 95° East 374 430 23,000 840 Climbing Washington Center
11:36AM 39.0883 -76.3083 97° East 393 452 23,000  Level Washington Center
11:37AM 39.0764 -76.1878 97° East 408 470 23,000  Level Washington Center
11:38AM 39.1064 -76.0303 76° East 407 468 23,000 600 Level Washington Center
11:39AM 39.1775 -75.9075 53° Northeast 401 461 24,200 1,500 Climbing Washington Center
11:40AM 39.2611 -75.7981 45° Northeast 410 472 26,100 1,860 Climbing Washington Center
11:41AM 39.3467 -75.6856 45° Northeast 417 480 28,000 1,740 Climbing Washington Center
11:42AM 39.4303 -75.5728 46° Northeast 422 486 29,600 1,620 Climbing Washington Center
11:43AM 39.5156 -75.4650 44° Northeast 422 486 31,300 1,500 Climbing Washington Center
11:44AM 39.5986 -75.3544 46° Northeast 422 486 32,600 480 Climbing Washington Center
11:47AM 39.7867 -75.0853 48° Northeast 458 527 33,000 120 Climbing New York Center
11:48AM 39.8656 -74.9764 47° Northeast 463 533 33,000  Level New York Center
11:48AM 39.9578 -74.8439 48° Northeast 455 524 33,000  Level New York Center
11:49AM 40.0322 -74.7425 46° Northeast 443 510 33,000  Level New York Center
11:50AM 40.1511 -74.6758 23° Northeast 420 483 33,000  Level New York Center
11:51AM 40.2586 -74.6386 15° North 415 478 33,000  Level New York Center
11:53AM 40.3764 -74.6014 14° North 428 493 33,000  Level New York Center
11:53AM 40.4944 -74.5644 13° North 428 493 33,000  Level New York Center
11:54AM 40.6125 -74.5244 14° North 433 498 33,000  Level New York Center
11:56AM 40.8194 -74.4558 14° North 433 498 33,000  Level Boston Center
11:57AM 40.9389 -74.4183 13° North 433 498 33,000  Level Boston Center
11:58AM 41.0581 -74.3836 12° North 432 497 33,000  Level Boston Center
11:59AM 41.1756 -74.3428 15° North 432 497 33,000  Level Boston Center
12:00PM 41.2908 -74.3050 14° North 432 497 33,000  Level Boston Center
12:01PM 41.3997 -74.2667 15° North 424 488 33,000  Level Boston Center
12:02PM 41.5339 -74.2233 14° North 436 502 33,000  Level Boston Center
12:03PM 41.6533 -74.1822 14° North 441 507 33,000  Level Boston Center
12:04PM 41.7981 -74.1303 15° North 441 507 33,000  Level Boston Center
12:05PM 41.9006 -74.0997 13° North 427 491 33,000  Level Boston Center
12:06PM 42.0178 -74.0581 15° North 422 486 33,000  Level Boston Center
12:07PM 42.1372 -74.0192 14° North 428 493 33,000  Level Boston Center
12:08PM 42.2567 -73.9772 15° North 434 499 33,000  Level Boston Center
12:10PM 42.3758 -73.9353 15° North 434 499 33,000 -420 Level Boston Center
12:11PM 42.5119 -73.8906 14° North 429 494 32,100 -1,080 Descending Boston Center
12:12PM 42.6356 -73.8456 15° North 424 488 30,900 -1,320 Descending Boston Center
12:13PM 42.7528 -73.8003 16° North 424 488 29,500 -960 Descending Boston Center
12:14PM 42.8806 -73.7547 15° North 438 504 29,000 -300 Descending Boston Center
12:15PM 43.0061 -73.7092 15° North 451 519 29,000 -180 Level Boston Center
12:16PM 43.1233 -73.6661 15° North 464 534 28,700 -1,020 Descending Boston Center
12:17PM 43.2467 -73.6172 16° North 464 534 27,000 -1,380 Descending Boston Center
12:18PM 43.3764 -73.5683 15° North 464 534 26,000 -1,560 Descending Boston Center
12:19PM 43.5019 -73.5250 14° North 464 534 24,000 -1,740 Descending Boston Center
12:20PM 43.6253 -73.4756 16° North 464 534 22,500 -2,340 Descending Boston Center
12:21PM 43.7361 -73.4372 14° North 425 489 19,300 -2,880 Descending Boston Center
12:22PM 43.8447 -73.3958 15° North 400 460 16,900 -2,640 Descending Boston Center
12:23PM 43.9450 -73.3569 16° North 382 440 14,100 -2,640 Descending Boston Center
12:24PM 44.0600 -73.3125 16° North 361 415 11,100 -2,100 Descending Boston Center
12:25PM 44.1583 -73.2764 15° North 336 387 9,500 -1,680 Descending Boston Center
12:26PM 44.2419 -73.2428 16° North 309 356 7,800 -1,920 Descending Boston Center
12:27PM 44.3211 -73.2439 359° North 290 334 5,700 -2,220 Descending Boston Center
12:28PM 44.4042 -73.2567 354° North 295 339 3,400 -2,340 Descending Boston Center